Time;durP1;ratioP1;P1;durP2;ratioP2;P2;SDS_P1;SDS_P2;PMS_P1;PMS_P2;Temp;Humidity;BMP_temperature;BMP_pressure;BME280_temperature;BME280_humidity;BME280_pressure;Samples;Min_cycle;Max_cycle;Signal;HPM_P1;HPM_P2
2023/05/28 00:02:07;;;;;;;4.83;3.20;;;13.20;99.90;;;;;;5015474;28;20168;-71
2023/05/28 00:04:32;;;;;;;4.23;2.47;;;13.20;99.90;;;;;;5015285;28;20179;-71
2023/05/28 00:06:58;;;;;;;5.10;3.30;;;13.10;99.90;;;;;;5015077;28;20226;-71
2023/05/28 00:09:23;;;;;;;5.40;3.67;;;13.10;99.90;;;;;;5015288;28;20192;-71
2023/05/28 00:11:49;;;;;;;4.77;3.10;;;13.00;99.90;;;;;;5015348;28;20164;-71
2023/05/28 00:14:14;;;;;;;4.53;3.50;;;13.00;99.90;;;;;;5015265;28;20179;-71
2023/05/28 00:16:40;;;;;;;3.73;3.20;;;13.00;99.90;;;;;;5015152;28;20173;-71
2023/05/28 00:19:07;;;;;;;3.73;2.83;;;12.90;99.90;;;;;;5014888;28;20188;-71
2023/05/28 00:21:33;;;;;;;3.30;3.00;;;12.90;99.90;;;;;;5015267;28;20835;-71
2023/05/28 00:23:59;;;;;;;3.83;2.80;;;12.80;99.90;;;;;;5015127;28;20407;-71
2023/05/28 00:26:26;;;;;;;3.13;2.83;;;12.80;99.90;;;;;;5015129;28;20417;-71
2023/05/28 00:28:51;;;;;;;6.33;3.60;;;12.80;99.90;;;;;;5014539;28;20287;-71
2023/05/28 00:31:17;;;;;;;4.10;3.47;;;12.80;99.90;;;;;;5015022;28;20446;-71
2023/05/28 00:33:43;;;;;;;6.77;3.10;;;12.70;99.90;;;;;;5014894;28;20176;-71
2023/05/28 00:36:10;;;;;;;6.83;2.70;;;12.70;99.90;;;;;;5014807;28;20172;-70
2023/05/28 00:38:36;;;;;;;3.20;2.90;;;12.60;99.90;;;;;;5014420;28;20423;-71
2023/05/28 00:41:01;;;;;;;3.90;3.50;;;12.60;99.90;;;;;;5014613;28;20437;-71
2023/05/28 00:43:27;;;;;;;6.00;4.23;;;12.60;99.90;;;;;;5014395;28;20172;-71
2023/05/28 00:45:57;;;;;;;4.00;3.07;;;12.50;99.90;;;;;;5014781;28;20172;-71
2023/05/28 00:48:23;;;;;;;3.47;2.70;;;12.50;99.90;;;;;;5014332;28;20188;-71
2023/05/28 00:50:49;;;;;;;6.60;4.00;;;12.40;99.90;;;;;;5014473;28;20391;-71
2023/05/28 00:53:16;;;;;;;6.57;3.97;;;12.40;99.90;;;;;;5014654;28;20923;-71
2023/05/28 00:55:41;;;;;;;4.63;3.13;;;12.30;99.90;;;;;;5014533;28;20401;-71
2023/05/28 00:58:07;;;;;;;4.80;3.30;;;12.30;99.90;;;;;;5014344;28;20780;-71
2023/05/28 01:00:36;;;;;;;4.93;2.83;;;12.30;99.90;;;;;;5013859;28;20172;-71
2023/05/28 01:03:03;;;;;;;7.33;3.00;;;12.20;99.90;;;;;;5014498;28;20602;-71
2023/05/28 01:05:31;;;;;;;3.10;2.80;;;12.20;99.90;;;;;;5014359;28;20431;-71
2023/05/28 01:08:00;;;;;;;4.73;3.10;;;12.10;99.90;;;;;;5014089;28;20433;-71
2023/05/28 01:10:26;;;;;;;3.13;2.80;;;12.10;99.90;;;;;;5014199;28;20790;-71
2023/05/28 01:12:52;;;;;;;4.33;2.60;;;12.10;99.90;;;;;;5014161;28;20423;-71
2023/05/28 01:15:18;;;;;;;4.70;2.47;;;12.10;99.90;;;;;;5014283;28;20403;-71
2023/05/28 01:17:45;;;;;;;4.80;2.90;;;12.00;99.90;;;;;;4996337;28;20793;-71
2023/05/28 01:20:13;;;;;;;6.20;3.20;;;12.00;99.90;;;;;;5014103;28;20849;-71
2023/05/28 01:22:45;;;;;;;4.83;2.83;;;12.00;99.90;;;;;;5014136;28;20505;-71
2023/05/28 01:25:12;;;;;;;3.77;3.00;;;11.90;99.90;;;;;;5013983;28;20411;-71
2023/05/28 01:27:40;;;;;;;4.40;2.60;;;11.90;99.90;;;;;;5013534;28;20879;-71
2023/05/28 01:30:09;;;;;;;3.97;3.23;;;11.90;99.90;;;;;;5013791;28;20455;-71
2023/05/28 01:32:38;;;;;;;5.73;3.10;;;11.90;99.90;;;;;;5013903;28;20441;-70
2023/05/28 01:35:05;;;;;;;4.47;3.10;;;11.80;99.90;;;;;;5013814;28;20516;-71
2023/05/28 01:37:33;;;;;;;6.43;3.70;;;11.80;99.90;;;;;;5013186;28;20434;-71
2023/05/28 01:40:02;;;;;;;4.93;3.53;;;11.70;99.90;;;;;;5013562;28;21163;-71
2023/05/28 01:42:29;;;;;;;3.10;2.70;;;11.70;99.90;;;;;;5013614;28;20546;-70
2023/05/28 01:44:56;;;;;;;5.30;3.70;;;11.70;99.90;;;;;;5013690;28;20407;-71
2023/05/28 01:47:23;;;;;;;4.47;2.93;;;11.60;99.90;;;;;;5012730;28;20481;-71
2023/05/28 01:49:50;;;;;;;3.80;3.00;;;11.60;99.90;;;;;;5013286;28;20459;-71
2023/05/28 01:52:16;;;;;;;3.50;2.97;;;11.60;99.90;;;;;;5013470;28;20410;-71
2023/05/28 01:54:41;;;;;;;7.53;3.50;;;11.50;99.90;;;;;;5013414;28;20407;-71
2023/05/28 01:57:07;;;;;;;6.60;3.70;;;11.50;99.90;;;;;;5013112;28;20172;-70
2023/05/28 01:59:32;;;;;;;5.30;3.37;;;11.50;99.90;;;;;;5013512;28;20169;-71
2023/05/28 02:02:01;;;;;;;7.90;4.13;;;11.40;99.90;;;;;;5013277;28;20293;-70
2023/05/28 02:04:26;;;;;;;6.00;4.37;;;11.40;99.90;;;;;;5013359;28;20668;-71
2023/05/28 02:06:52;;;;;;;5.10;3.63;;;11.40;99.90;;;;;;5012938;28;20419;-71
2023/05/28 02:09:18;;;;;;;4.43;3.50;;;11.30;99.90;;;;;;5012974;28;20211;-70
2023/05/28 02:11:43;;;;;;;8.03;4.47;;;11.30;99.90;;;;;;5012515;28;20173;-71
2023/05/28 02:14:14;;;;;;;5.83;3.50;;;11.20;99.90;;;;;;5012890;28;20267;-71
2023/05/28 02:16:42;;;;;;;5.57;3.60;;;11.20;99.90;;;;;;5013115;28;20176;-70
2023/05/28 02:19:09;;;;;;;5.77;3.90;;;11.20;99.90;;;;;;5012667;28;20489;-71
2023/05/28 02:21:36;;;;;;;4.43;3.80;;;11.10;99.90;;;;;;5012966;28;20925;-70
2023/05/28 02:24:01;;;;;;;6.63;3.60;;;11.10;99.90;;;;;;5012863;28;20478;-71
2023/05/28 02:26:27;;;;;;;4.80;3.80;;;11.10;99.90;;;;;;5012916;28;20818;-70
2023/05/28 02:28:53;;;;;;;5.27;3.90;;;11.00;99.90;;;;;;5012492;28;20681;-70
2023/05/28 02:31:19;;;;;;;5.77;4.10;;;11.00;99.90;;;;;;5012801;28;20218;-71
2023/05/28 02:33:44;;;;;;;6.40;4.00;;;11.00;99.90;;;;;;5012854;28;20171;-70
2023/05/28 02:36:13;;;;;;;4.13;3.00;;;10.90;99.90;;;;;;5012812;28;20410;-70
2023/05/28 02:38:39;;;;;;;2.93;2.63;;;10.90;99.90;;;;;;5012308;28;20218;-70
2023/05/28 02:41:04;;;;;;;5.10;4.13;;;10.90;99.90;;;;;;5012682;28;20408;-71
2023/05/28 02:43:30;;;;;;;8.23;4.77;;;10.80;99.90;;;;;;5012557;28;20472;-70
2023/05/28 02:45:56;;;;;;;6.80;3.80;;;10.80;99.90;;;;;;5012600;28;20411;-70
2023/05/28 02:48:22;;;;;;;5.03;3.50;;;10.80;99.90;;;;;;5012151;28;20776;-70
2023/05/28 02:50:47;;;;;;;5.70;3.73;;;10.80;99.90;;;;;;5012582;28;20434;-70
2023/05/28 02:53:13;;;;;;;5.50;3.93;;;10.80;99.90;;;;;;5012399;28;20211;-70
2023/05/28 02:55:38;;;;;;;5.73;4.00;;;10.80;99.90;;;;;;5012571;28;20172;-70
2023/05/28 02:58:05;;;;;;;6.53;3.40;;;10.80;99.90;;;;;;5012046;28;20188;-71
2023/05/28 03:00:31;;;;;;;4.83;3.70;;;10.80;99.90;;;;;;5012531;28;20172;-70
2023/05/28 03:02:56;;;;;;;5.63;4.50;;;10.80;99.90;;;;;;5012452;28;20403;-71
2023/05/28 03:05:22;;;;;;;5.53;3.97;;;10.80;99.90;;;;;;5012465;28;20501;-70
2023/05/28 03:07:48;;;;;;;5.53;3.73;;;10.70;99.90;;;;;;4994087;28;20195;-70
2023/05/28 03:10:14;;;;;;;7.63;4.03;;;10.70;99.90;;;;;;5012292;28;20286;-70
2023/05/28 03:12:40;;;;;;;5.50;3.73;;;10.70;99.90;;;;;;5012223;28;20423;-70
2023/05/28 03:15:06;;;;;;;6.10;4.30;;;10.70;99.90;;;;;;5012242;28;20164;-70
2023/05/28 03:17:31;;;;;;;5.87;3.43;;;10.70;99.90;;;;;;5011946;28;20250;-70
2023/05/28 03:19:57;;;;;;;5.10;3.90;;;10.60;99.90;;;;;;5012123;28;20439;-70
2023/05/28 03:22:22;;;;;;;3.50;2.93;;;10.60;99.90;;;;;;5012199;28;20186;-70
2023/05/28 03:24:48;;;;;;;4.20;3.60;;;10.60;99.90;;;;;;5015319;28;20168;-71
2023/05/28 03:27:14;;;;;;;4.27;3.80;;;10.60;99.90;;;;;;5015977;28;20192;-70
2023/05/28 03:29:39;;;;;;;7.90;4.27;;;10.60;99.90;;;;;;5016123;28;20208;-70
2023/05/28 03:32:05;;;;;;;4.20;3.50;;;10.60;99.90;;;;;;5016235;28;20657;-70
2023/05/28 03:34:30;;;;;;;5.33;4.47;;;10.50;99.90;;;;;;5016085;28;20295;-70
2023/05/28 03:36:56;;;;;;;4.80;3.60;;;10.50;99.90;;;;;;5015604;28;20164;-71
2023/05/28 03:39:21;;;;;;;7.27;3.67;;;10.50;99.90;;;;;;5015976;28;20179;-70
2023/05/28 03:41:48;;;;;;;5.50;3.77;;;10.50;99.90;;;;;;4998236;28;20263;-70
2023/05/28 03:44:16;;;;;;;7.37;4.07;;;10.60;99.90;;;;;;5015906;28;20586;-70
2023/05/28 03:46:41;;;;;;;5.00;4.27;;;10.60;99.90;;;;;;5015935;28;20502;-71
2023/05/28 03:49:07;;;;;;;4.83;3.70;;;10.60;99.90;;;;;;5015431;28;20458;-70
2023/05/28 03:51:33;;;;;;;4.83;3.70;;;10.60;99.90;;;;;;5015805;28;20262;-70
2023/05/28 03:53:58;;;;;;;6.93;4.30;;;10.60;99.90;;;;;;5015707;28;20195;-70
2023/05/28 03:56:24;;;;;;;4.77;3.50;;;10.70;99.90;;;;;;5015712;28;20164;-70
2023/05/28 03:58:50;;;;;;;6.90;4.93;;;10.70;99.90;;;;;;5015439;28;20618;-70
2023/05/28 04:01:15;;;;;;;5.37;3.90;;;10.70;99.90;;;;;;5015608;28;20690;-71
2023/05/28 04:03:41;;;;;;;4.60;3.57;;;10.80;99.90;;;;;;5015599;28;20182;-71
2023/05/28 04:06:08;;;;;;;6.50;3.53;;;10.80;99.90;;;;;;5015372;28;20168;-70
2023/05/28 04:08:34;;;;;;;7.03;4.83;;;10.80;99.90;;;;;;5015231;28;20290;-70
2023/05/28 04:10:59;;;;;;;8.33;3.80;;;10.80;99.90;;;;;;5015173;28;20583;-70
2023/05/28 04:13:25;;;;;;;6.10;4.30;;;10.90;99.90;;;;;;5015158;28;20451;-71
2023/05/28 04:15:50;;;;;;;7.60;4.57;;;11.00;99.90;;;;;;5015218;28;20283;-70
2023/05/28 04:18:16;;;;;;;3.97;3.30;;;11.00;99.90;;;;;;5014698;28;20188;-70
2023/05/28 04:20:41;;;;;;;6.60;4.07;;;11.10;99.90;;;;;;5015150;28;20200;-70
2023/05/28 04:23:07;;;;;;;6.73;4.30;;;11.10;99.90;;;;;;5015141;28;20595;-70
2023/05/28 04:25:33;;;;;;;6.87;4.10;;;11.20;99.90;;;;;;5015208;28;20164;-70
2023/05/28 04:28:00;;;;;;;7.17;4.50;;;11.30;99.90;;;;;;5014866;28;20315;-70
2023/05/28 04:30:26;;;;;;;9.93;3.40;;;11.30;99.90;;;;;;5015009;28;20188;-71
2023/05/28 04:32:51;;;;;;;7.87;5.30;;;11.40;99.90;;;;;;5014902;28;20417;-71
2023/05/28 04:35:17;;;;;;;6.27;3.90;;;11.50;99.90;;;;;;5014067;28;20164;-71
2023/05/28 04:37:44;;;;;;;4.37;3.93;;;11.60;99.90;;;;;;4996780;28;20641;-71
2023/05/28 04:40:13;;;;;;;6.93;4.40;;;11.70;99.90;;;;;;5014845;28;20168;-71
2023/05/28 04:42:40;;;;;;;5.00;4.20;;;11.80;99.90;;;;;;4997252;28;20423;-70
2023/05/28 04:45:07;;;;;;;4.07;3.13;;;11.90;99.90;;;;;;5014743;28;21085;-70
2023/05/28 04:47:34;;;;;;;5.93;3.40;;;12.00;99.90;;;;;;5014244;28;20485;-71
2023/05/28 04:50:00;;;;;;;4.07;3.40;;;12.10;99.90;;;;;;5014711;28;20451;-71
2023/05/28 04:52:26;;;;;;;4.43;4.03;;;12.20;99.90;;;;;;5014699;28;20441;-71
2023/05/28 04:54:52;;;;;;;3.90;3.20;;;12.40;99.90;;;;;;5014797;28;20442;-70
2023/05/28 04:57:17;;;;;;;8.70;4.30;;;12.50;99.90;;;;;;5014228;28;20184;-70
2023/05/28 04:59:43;;;;;;;4.37;3.90;;;12.60;99.90;;;;;;5014587;28;20173;-71
2023/05/28 05:02:08;;;;;;;6.30;3.40;;;12.80;99.90;;;;;;5014468;28;20226;-71
2023/05/28 05:04:34;;;;;;;4.23;3.20;;;12.90;99.90;;;;;;5014576;28;20702;-71
2023/05/28 05:07:00;;;;;;;5.37;3.40;;;13.00;99.90;;;;;;5013923;28;20176;-70
2023/05/28 05:09:27;;;;;;;5.77;3.70;;;13.20;99.90;;;;;;5014376;28;20571;-71
2023/05/28 05:11:52;;;;;;;5.20;3.87;;;13.30;99.90;;;;;;5014512;28;20435;-71
2023/05/28 05:14:18;;;;;;;3.90;3.50;;;13.50;99.90;;;;;;4996604;28;20613;-71
2023/05/28 05:16:43;;;;;;;6.77;5.00;;;13.60;99.90;;;;;;5014163;28;20192;-71
2023/05/28 05:19:09;;;;;;;7.07;5.20;;;13.80;99.90;;;;;;5013886;28;20326;-71
2023/05/28 05:21:35;;;;;;;8.73;4.80;;;14.00;99.90;;;;;;5014106;28;20165;-71
2023/05/28 05:24:01;;;;;;;7.27;4.60;;;14.10;99.90;;;;;;5014099;28;20187;-71
2023/05/28 05:26:26;;;;;;;18.33;6.03;;;14.30;99.90;;;;;;5014101;28;20419;-71
2023/05/28 05:28:52;;;;;;;7.47;4.53;;;14.40;99.90;;;;;;5013579;28;20284;-71
2023/05/28 05:31:17;;;;;;;6.17;4.10;;;14.70;99.90;;;;;;5013948;28;20694;-71
2023/05/28 05:33:43;;;;;;;4.70;3.70;;;15.00;99.90;;;;;;5013835;28;20250;-71
2023/05/28 05:36:09;;;;;;;4.77;4.20;;;15.30;99.90;;;;;;5013826;28;20665;-72
2023/05/28 05:38:35;;;;;;;10.67;4.47;;;15.50;99.90;;;;;;5013704;28;20184;-64
2023/05/28 05:41:01;;;;;;;5.20;4.57;;;15.80;99.90;;;;;;5013820;28;20407;-66
2023/05/28 05:43:26;;;;;;;7.43;4.57;;;16.30;99.90;;;;;;5013548;28;20568;-66
2023/05/28 05:45:52;;;;;;;8.07;5.40;;;16.80;99.90;;;;;;5013680;28;20200;-66
2023/05/28 05:48:17;;;;;;;7.37;5.30;;;17.40;99.90;;;;;;5013248;28;20590;-66
2023/05/28 05:50:54;;;;;;;7.60;5.13;;;17.80;99.90;;;;;;5013521;28;20204;-66
2023/05/28 05:53:21;;;;;;;5.90;4.80;;;18.00;99.90;;;;;;5013518;28;20555;-66
2023/05/28 05:55:46;;;;;;;5.23;4.03;;;18.20;99.90;;;;;;5013516;28;20413;-67
2023/05/28 05:58:13;;;;;;;6.67;5.13;;;18.50;99.90;;;;;;5012960;28;20510;-65
2023/05/28 06:00:38;;;;;;;6.90;4.77;;;18.90;99.90;;;;;;5013388;28;20164;-69
2023/05/28 06:03:04;;;;;;;4.80;3.73;;;19.60;99.90;;;;;;5013289;28;20414;-70
2023/05/28 06:05:31;;;;;;;7.20;4.23;;;20.40;99.90;;;;;;5013349;28;20201;-71
2023/05/28 06:07:56;;;;;;;10.97;4.20;;;21.20;99.90;;;;;;5012978;28;20250;-71
2023/05/28 06:10:22;;;;;;;5.20;3.90;;;21.90;99.90;;;;;;5013094;28;20458;-71
2023/05/28 06:12:48;;;;;;;9.70;5.43;;;22.60;99.90;;;;;;4995517;28;20237;-71
2023/05/28 06:15:13;;;;;;;5.73;4.07;;;23.50;97.60;;;;;;5013083;28;20264;-71
2023/05/28 06:17:41;;;;;;;5.20;4.00;;;24.20;93.40;;;;;;5012270;28;20892;-71
2023/05/28 06:20:07;;;;;;;4.37;3.93;;;24.90;86.60;;;;;;5012946;28;20168;-71
2023/05/28 06:22:33;;;;;;;8.37;4.30;;;25.50;78.80;;;;;;5012996;28;20743;-71
2023/05/28 06:25:00;;;;;;;6.33;3.67;;;26.10;70.10;;;;;;5012956;28;20446;-72
2023/05/28 06:27:26;;;;;;;5.10;4.00;;;26.60;62.50;;;;;;5012684;28;20242;-73
2023/05/28 06:29:51;;;;;;;6.47;3.90;;;27.10;59.20;;;;;;5012817;28;20956;-73
2023/05/28 06:32:17;;;;;;;6.97;3.60;;;27.70;57.20;;;;;;5012853;28;20630;-73
2023/05/28 06:34:43;;;;;;;6.03;3.83;;;28.20;53.90;;;;;;5012726;28;20658;-73
2023/05/28 06:37:08;;;;;;;4.00;3.67;;;28.70;52.20;;;;;;5012515;28;20534;-73
2023/05/28 06:39:34;;;;;;;5.03;3.83;;;29.10;50.60;;;;;;5012750;28;20741;-73
2023/05/28 06:42:00;;;;;;;4.53;4.03;;;29.50;48.90;;;;;;5012811;28;20200;-73
2023/05/28 06:44:26;;;;;;;6.10;3.73;;;30.00;46.80;;;;;;5012705;28;20526;-73
2023/05/28 06:46:51;;;;;;;3.50;3.20;;;30.30;44.20;;;;;;5012467;28;20461;-73
2023/05/28 06:49:17;;;;;;;4.33;3.93;;;30.50;43.50;;;;;;5012439;28;20192;-73
2023/05/28 06:51:42;;;;;;;5.17;3.47;;;30.70;41.80;;;;;;5012660;28;20164;-73
2023/05/28 06:54:08;;;;;;;8.20;3.87;;;31.10;42.20;;;;;;5012540;28;20164;-73
2023/05/28 06:56:34;;;;;;;10.10;4.13;;;31.70;41.80;;;;;;5012537;28;20161;-73
2023/05/28 06:59:00;;;;;;;3.83;3.23;;;32.30;41.30;;;;;;5011758;28;20220;-73
2023/05/28 07:01:25;;;;;;;7.30;4.20;;;32.90;41.10;;;;;;5012434;28;20908;-73
2023/05/28 07:03:51;;;;;;;8.90;3.57;;;33.60;40.10;;;;;;5012429;28;20239;-73
2023/05/28 07:06:16;;;;;;;5.77;3.63;;;34.10;38.90;;;;;;5012419;28;20168;-73
2023/05/28 07:08:44;;;;;;;4.03;3.70;;;34.80;37.50;;;;;;5011928;28;20697;-70
2023/05/28 07:11:13;;;;;;;5.77;4.53;;;35.50;36.40;;;;;;5012335;28;20183;-71
2023/05/28 07:13:39;;;;;;;4.97;4.50;;;36.20;35.00;;;;;;5012228;28;20453;-73
2023/05/28 07:16:06;;;;;;;4.30;3.67;;;36.80;33.90;;;;;;5012237;28;20389;-73
2023/05/28 07:18:32;;;;;;;5.00;3.43;;;37.50;32.40;;;;;;5011880;28;20458;-72
2023/05/28 07:20:57;;;;;;;6.93;4.00;;;38.20;31.00;;;;;;5011956;28;20385;-72
2023/05/28 07:23:23;;;;;;;3.60;3.20;;;38.80;30.10;;;;;;5012163;28;20382;-73
2023/05/28 07:25:49;;;;;;;4.33;3.83;;;39.40;29.30;;;;;;5012112;28;20255;-73
2023/05/28 07:28:14;;;;;;;6.50;4.10;;;40.10;28.80;;;;;;5011797;28;20223;-72
2023/05/28 07:30:41;;;;;;;6.87;4.20;;;40.70;28.30;;;;;;5012122;28;20279;-70
2023/05/28 07:33:07;;;;;;;4.03;3.63;;;41.40;27.20;;;;;;5012124;28;20160;-70
2023/05/28 07:35:33;;;;;;;5.00;3.77;;;42.10;26.70;;;;;;5012120;28;20721;-70
2023/05/28 07:37:59;;;;;;;3.77;3.47;;;42.80;26.20;;;;;;5011783;28;20394;-71
2023/05/28 07:40:24;;;;;;;5.03;3.73;;;43.50;25.50;;;;;;5012028;28;20164;-71
2023/05/28 07:42:50;;;;;;;5.33;3.97;;;44.10;24.70;;;;;;5011976;28;20214;-73
2023/05/28 07:45:16;;;;;;;3.70;3.40;;;44.80;24.10;;;;;;5012095;28;20168;-73
2023/05/28 07:47:41;;;;;;;4.00;3.60;;;45.40;23.90;;;;;;5011533;28;20184;-73
2023/05/28 07:50:07;;;;;;;5.60;4.40;;;46.00;23.70;;;;;;5011938;28;20701;-71
2023/05/28 07:52:33;;;;;;;5.10;4.10;;;46.50;23.20;;;;;;5011152;28;20204;-72
2023/05/28 07:54:59;;;;;;;5.33;4.00;;;46.60;22.40;;;;;;5011800;28;20493;-71
2023/05/28 07:57:25;;;;;;;5.50;4.97;;;46.80;22.00;;;;;;5011013;28;20188;-71
2023/05/28 07:59:51;;;;;;;4.20;3.87;;;47.20;22.10;;;;;;5011865;28;20425;-70
2023/05/28 08:02:17;;;;;;;4.20;3.90;;;47.70;21.40;;;;;;5011739;28;20208;-62
2023/05/28 08:04:42;;;;;;;4.17;3.77;;;48.30;21.50;;;;;;5011844;28;20164;-61
2023/05/28 08:07:10;;;;;;;4.87;4.47;;;48.80;21.40;;;;;;5011035;28;20240;-62
2023/05/28 08:09:36;;;;;;;4.90;4.40;;;49.30;21.00;;;;;;5011581;28;20192;-65
2023/05/28 08:12:02;;;;;;;5.07;4.00;;;49.60;20.90;;;;;;5014959;28;20573;-65
2023/05/28 08:14:28;;;;;;;4.17;3.83;;;49.60;21.00;;;;;;5015371;28;20521;-65
2023/05/28 08:16:54;;;;;;;6.50;5.33;;;49.40;20.90;;;;;;5015024;28;20498;-65
2023/05/28 08:19:19;;;;;;;4.80;4.00;;;49.30;20.90;;;;;;5015149;28;20246;-65
2023/05/28 08:21:45;;;;;;;5.70;5.23;;;49.10;20.80;;;;;;5015377;28;20186;-65
2023/05/28 08:24:11;;;;;;;4.00;3.60;;;49.00;20.70;;;;;;5015269;28;20199;-65
2023/05/28 08:26:37;;;;;;;5.20;4.10;;;48.70;20.90;;;;;;5015278;28;20165;-65
2023/05/28 08:29:04;;;;;;;7.40;4.10;;;48.70;21.00;;;;;;5014864;28;20184;-65
2023/05/28 08:31:30;;;;;;;4.10;3.70;;;48.70;21.00;;;;;;5015091;28;20415;-65
2023/05/28 08:33:56;;;;;;;4.50;4.10;;;48.90;21.00;;;;;;5015183;28;20940;-65
2023/05/28 08:36:21;;;;;;;5.87;4.67;;;49.00;20.70;;;;;;5015031;28;20399;-65
2023/05/28 08:38:47;;;;;;;5.47;3.40;;;49.00;20.60;;;;;;5014505;28;20341;-65
2023/05/28 08:41:13;;;;;;;3.73;3.40;;;49.00;20.60;;;;;;5014971;28;20548;-65
2023/05/28 08:43:38;;;;;;;3.80;3.47;;;49.10;20.70;;;;;;5014873;28;20533;-65
2023/05/28 08:46:04;;;;;;;6.80;3.70;;;49.20;20.40;;;;;;5014924;28;20160;-64
2023/05/28 08:48:34;;;;;;;4.03;3.63;;;49.40;20.10;;;;;;5014461;28;20176;-65
2023/05/28 08:51:00;;;;;;;4.80;3.40;;;49.60;20.30;;;;;;5014790;28;20407;-65
2023/05/28 08:53:30;;;;;;;3.30;3.00;;;49.90;20.20;;;;;;5014664;28;20406;-65
2023/05/28 08:55:56;;;;;;;4.73;4.33;;;50.20;20.00;;;;;;5014811;28;20378;-65
2023/05/28 08:58:21;;;;;;;4.40;4.00;;;50.30;20.10;;;;;;5014220;28;20423;-64
2023/05/28 09:00:48;;;;;;;4.93;3.87;;;50.60;20.00;;;;;;5014521;28;20192;-65
2023/05/28 09:03:13;;;;;;;3.20;3.00;;;50.80;19.90;;;;;;5014632;28;20199;-65
2023/05/28 09:05:39;;;;;;;4.27;3.87;;;51.00;19.70;;;;;;5014475;28;20408;-65
2023/05/28 09:08:12;;;;;;;4.17;3.77;;;51.30;19.60;;;;;;5013747;28;20185;-65
2023/05/28 09:10:38;;;;;;;4.60;4.20;;;51.50;19.60;;;;;;5014360;28;20178;-65
2023/05/28 09:13:05;;;;;;;5.23;4.10;;;51.90;19.80;;;;;;5014257;28;20423;-64
2023/05/28 09:15:31;;;;;;;6.70;3.93;;;52.10;19.30;;;;;;5013752;28;20855;-65
2023/05/28 09:17:59;;;;;;;3.80;3.50;;;52.30;19.30;;;;;;5013556;28;21183;-65
2023/05/28 09:20:25;;;;;;;4.43;4.00;;;52.60;19.10;;;;;;5013633;28;20451;-65
2023/05/28 09:23:02;;;;;;;3.67;3.37;;;52.90;19.20;;;;;;5013474;28;20863;-64
2023/05/28 09:25:31;;;;;;;4.77;4.13;;;53.10;18.80;;;;;;5014184;28;20407;-65
2023/05/28 09:27:58;;;;;;;3.97;3.70;;;53.30;18.10;;;;;;5013502;28;20798;-65
2023/05/28 09:30:24;;;;;;;4.27;3.93;;;53.20;18.30;;;;;;5013754;28;20423;-65
2023/05/28 09:33:00;;;;;;;3.50;3.30;;;53.30;18.20;;;;;;5013749;28;20510;-65
2023/05/28 09:35:26;;;;;;;3.80;3.50;;;53.40;18.30;;;;;;5013945;28;20426;-64
2023/05/28 09:38:10;;;;;;;5.03;4.07;;;53.50;18.00;;;;;;5013376;28;20443;-65
2023/05/28 09:40:43;;;;;;;3.73;3.43;;;53.80;17.90;;;;;;5013616;28;20455;-65
2023/05/28 09:43:10;;;;;;;4.17;3.87;;;54.00;17.80;;;;;;5013586;28;20982;-65
2023/05/28 09:45:36;;;;;;;4.30;3.97;;;54.20;17.60;;;;;;5013669;28;20462;-65
2023/05/28 09:48:02;;;;;;;4.57;4.27;;;54.50;17.70;;;;;;5013195;28;20439;-65
2023/05/28 09:50:28;;;;;;;6.53;3.87;;;54.80;17.60;;;;;;5013407;28;20510;-64
2023/05/28 09:52:58;;;;;;;3.60;3.40;;;55.00;17.50;;;;;;5013562;28;21152;-65
2023/05/28 09:55:28;;;;;;;4.60;4.30;;;55.20;17.20;;;;;;5012794;28;20237;-65
2023/05/28 09:58:05;;;;;;;3.83;3.53;;;55.50;17.10;;;;;;5012555;28;20484;-65
2023/05/28 10:00:52;;;;;;;4.30;4.00;;;55.60;16.80;;;;;;5013041;28;20454;-64
2023/05/28 10:03:36;;;;;;;4.63;4.10;;;55.70;17.40;;;;;;5013132;28;20426;-65
2023/05/28 10:06:06;;;;;;;4.03;3.63;;;55.90;16.90;;;;;;5012761;28;20429;-66
2023/05/28 10:08:39;;;;;;;4.67;4.37;;;56.30;17.10;;;;;;5013100;28;20963;-63
2023/05/28 10:11:15;;;;;;;5.73;4.10;;;56.60;16.30;;;;;;5013334;28;20403;-65
2023/05/28 10:13:41;;;;;;;4.10;3.70;;;56.70;16.00;;;;;;5012782;28;20435;-66
2023/05/28 10:16:07;;;;;;;5.20;4.90;;;56.40;15.90;;;;;;5013250;28;20438;-66
2023/05/28 10:18:35;;;;;;;4.60;4.23;;;56.30;16.30;;;;;;5012719;28;20458;-65
2023/05/28 10:21:01;;;;;;;5.07;4.77;;;56.40;16.30;;;;;;5013136;28;20406;-66
2023/05/28 10:23:27;;;;;;;3.77;3.57;;;56.60;16.40;;;;;;5012667;28;20418;-66
2023/05/28 10:25:54;;;;;;;3.97;3.67;;;56.90;16.50;;;;;;5013020;28;20410;-66
2023/05/28 10:28:21;;;;;;;4.93;4.53;;;57.20;16.00;;;;;;5012399;28;20218;-66
2023/05/28 10:31:04;;;;;;;3.90;3.60;;;57.40;16.20;;;;;;5012698;28;20431;-66
2023/05/28 10:33:30;;;;;;;4.47;4.07;;;57.60;16.00;;;;;;5011827;28;20419;-65
2023/05/28 10:35:58;;;;;;;4.37;4.00;;;57.60;15.90;;;;;;5012434;28;20414;-66
2023/05/28 10:38:24;;;;;;;4.70;4.30;;;57.70;16.00;;;;;;5012740;28;20430;-66
2023/05/28 10:40:50;;;;;;;4.30;4.00;;;57.80;16.20;;;;;;5012228;28;20883;-66
2023/05/28 10:43:37;;;;;;;5.53;4.90;;;58.10;15.60;;;;;;5012463;28;20254;-65
2023/05/28 10:46:03;;;;;;;4.57;4.27;;;58.20;15.20;;;;;;5014936;28;20785;-65
2023/05/28 10:48:31;;;;;;;4.77;4.37;;;58.40;15.20;;;;;;5032021;28;20428;-65
2023/05/28 10:51:01;;;;;;;4.60;4.30;;;58.50;15.50;;;;;;5016887;28;20171;-65
2023/05/28 10:53:27;;;;;;;4.97;4.67;;;58.60;15.40;;;;;;5012297;28;20453;-65
2023/05/28 10:55:53;;;;;;;5.20;4.80;;;58.60;15.20;;;;;;5012178;28;20419;-65
2023/05/28 10:58:36;;;;;;;5.10;4.67;;;58.50;15.30;;;;;;5011849;28;20562;-65
2023/05/28 11:01:11;;;;;;;4.70;4.30;;;58.30;15.10;;;;;;5011947;28;20415;-66
2023/05/28 11:03:47;;;;;;;4.80;4.40;;;58.30;15.50;;;;;;5012289;28;20406;-65
2023/05/28 11:06:13;;;;;;;4.47;4.17;;;58.20;15.50;;;;;;5011693;28;20414;-66
2023/05/28 11:08:41;;;;;;;4.10;3.80;;;58.20;15.70;;;;;;5011220;28;20496;-66
2023/05/28 11:11:07;;;;;;;5.57;3.97;;;58.10;15.20;;;;;;5012360;28;20407;-66
2023/05/28 11:13:33;;;;;;;4.40;4.10;;;58.10;15.40;;;;;;5011260;28;20489;-66
2023/05/28 11:16:09;;;;;;;4.90;4.60;;;58.00;15.30;;;;;;5012276;28;20182;-66
2023/05/28 11:18:35;;;;;;;4.50;4.20;;;58.00;15.60;;;;;;5011715;28;20969;-66
2023/05/28 11:21:04;;;;;;;4.80;4.40;;;58.10;14.90;;;;;;5012129;28;20413;-66
2023/05/28 11:23:30;;;;;;;5.17;4.67;;;58.00;15.30;;;;;;5012158;28;20156;-66
2023/05/28 11:25:55;;;;;;;5.13;4.57;;;57.80;15.30;;;;;;5012050;28;20418;-66
2023/05/28 11:28:21;;;;;;;4.30;3.97;;;57.70;15.20;;;;;;5011799;28;20226;-66
2023/05/28 11:30:50;;;;;;;4.73;4.33;;;57.60;15.40;;;;;;5012134;28;20160;-66
2023/05/28 11:33:15;;;;;;;4.60;4.30;;;57.40;15.60;;;;;;5012142;28;20179;-65
2023/05/28 11:35:42;;;;;;;5.00;4.60;;;57.30;15.70;;;;;;5012584;28;20494;-67
2023/05/28 11:38:07;;;;;;;4.43;4.10;;;57.20;15.40;;;;;;5012049;28;20183;-66
2023/05/28 11:40:34;;;;;;;4.60;4.30;;;57.10;15.50;;;;;;5012501;28;20450;-66
2023/05/28 11:43:00;;;;;;;5.37;4.90;;;57.10;15.60;;;;;;5012275;28;20170;-66
2023/05/28 11:45:26;;;;;;;4.10;3.80;;;57.10;15.60;;;;;;5015065;28;20406;-67
2023/05/28 11:47:52;;;;;;;5.07;4.67;;;57.20;15.60;;;;;;5015574;28;20425;-67
2023/05/28 11:50:17;;;;;;;5.00;4.60;;;57.50;15.30;;;;;;5015953;28;20171;-67
2023/05/28 11:52:45;;;;;;;4.40;4.20;;;57.50;15.40;;;;;;5016202;28;20176;-66
2023/05/28 11:55:10;;;;;;;4.63;4.33;;;57.50;15.20;;;;;;5016257;28;20512;-66
2023/05/28 11:57:39;;;;;;;4.40;4.10;;;57.20;15.40;;;;;;5015908;28;20420;-67
2023/05/28 12:00:18;;;;;;;4.40;4.10;;;57.30;15.40;;;;;;5015796;28;20908;-66
2023/05/28 12:02:53;;;;;;;4.00;3.70;;;57.20;15.30;;;;;;5015627;28;20448;-67
2023/05/28 12:05:19;;;;;;;4.40;4.10;;;57.00;15.10;;;;;;5015685;28;20398;-67
2023/05/28 12:07:47;;;;;;;4.10;3.70;;;57.00;15.40;;;;;;5015062;28;20426;-66
2023/05/28 12:10:16;;;;;;;4.33;4.03;;;57.20;15.50;;;;;;5015478;28;20399;-66
2023/05/28 12:12:43;;;;;;;4.47;4.17;;;57.10;15.50;;;;;;5015307;28;20782;-66
2023/05/28 12:15:09;;;;;;;4.00;3.70;;;57.10;15.40;;;;;;5015428;28;20824;-67
2023/05/28 12:17:39;;;;;;;6.27;4.57;;;57.20;15.40;;;;;;5015082;28;20426;-67
2023/05/28 12:20:12;;;;;;;4.63;4.33;;;57.10;15.20;;;;;;5015460;28;20450;-67
2023/05/28 12:22:41;;;;;;;5.77;5.37;;;56.90;14.70;;;;;;5015337;28;20903;-66
2023/05/28 12:25:07;;;;;;;3.63;3.43;;;56.80;15.20;;;;;;5015212;28;20753;-66
2023/05/28 12:27:35;;;;;;;4.90;4.50;;;56.80;15.00;;;;;;5015106;28;20464;-66
2023/05/28 12:30:01;;;;;;;4.60;4.30;;;56.80;15.00;;;;;;5015101;28;20406;-67
2023/05/28 12:32:27;;;;;;;4.67;4.33;;;56.60;15.10;;;;;;5015117;28;20755;-66
2023/05/28 12:34:56;;;;;;;4.53;4.23;;;56.40;15.10;;;;;;5015079;28;20403;-66
2023/05/28 12:37:24;;;;;;;4.30;3.90;;;56.20;15.20;;;;;;5014682;28;20195;-66
2023/05/28 12:39:51;;;;;;;4.00;3.70;;;56.10;15.50;;;;;;5014796;28;20549;-66
2023/05/28 12:42:17;;;;;;;3.87;3.67;;;56.00;15.60;;;;;;5014882;28;20403;-67
2023/05/28 12:44:42;;;;;;;7.67;4.13;;;55.90;15.30;;;;;;5014827;28;20407;-66